Time;durP1;ratioP1;P1;durP2;ratioP2;P2;SDS_P1;SDS_P2;PMS_P1;PMS_P2;Temp;Humidity;BMP_temperature;BMP_pressure;BME280_temperature;BME280_humidity;BME280_pressure;Samples;Min_cycle;Max_cycle;Signal;HPM_P1;HPM_P2
2023/08/22 00:01:51;;;;;;;;;;;;;;;24.08;68.30;97269.02;593653;238;63211;-69
2023/08/22 00:04:19;;;;;;;;;;;;;;;24.07;68.28;97268.22;595268;238;64878;-69
2023/08/22 00:06:47;;;;;;;;;;;;;;;24.07;68.26;97265.53;594117;238;66820;-68
2023/08/22 00:09:14;;;;;;;;;;;;;;;24.07;68.25;97270.91;593155;239;64551;-68
2023/08/22 00:11:42;;;;;;;;;;;;;;;24.08;68.24;97271.70;593158;239;65049;-69
2023/08/22 00:14:09;;;;;;;;;;;;;;;24.08;68.22;97274.38;592893;239;64845;-68
2023/08/22 00:16:37;;;;;;;;;;;;;;;24.08;68.20;97266.33;593684;239;62491;-68
2023/08/22 00:19:05;;;;;;;;;;;;;;;24.07;68.21;97272.80;593509;239;64775;-68
2023/08/22 00:21:32;;;;;;;;;;;;;;;24.07;68.18;97264.74;593160;239;66949;-68
2023/08/22 00:24:00;;;;;;;;;;;;;;;24.07;68.17;97267.42;593170;239;64486;-68
2023/08/22 00:26:28;;;;;;;;;;;;;;;24.07;68.13;97272.80;593453;239;67090;-68
2023/08/22 00:28:55;;;;;;;;;;;;;;;24.07;68.12;97275.48;593249;239;64775;-68
2023/08/22 00:31:23;;;;;;;;;;;;;;;24.07;68.10;97272.80;593578;239;62711;-68
2023/08/22 00:33:50;;;;;;;;;;;;;;;24.07;68.08;97270.91;593169;239;64703;-68
2023/08/22 00:36:18;;;;;;;;;;;;;;;24.06;68.05;97258.58;593158;239;67067;-69
2023/08/22 00:38:45;;;;;;;;;;;;;;;24.06;68.00;97263.13;593392;239;64775;-68
2023/08/22 00:41:13;;;;;;;;;;;;;;;24.06;68.01;97255.89;593503;239;67467;-68
2023/08/22 00:43:40;;;;;;;;;;;;;;;24.06;67.97;97258.58;593452;239;64687;-68
2023/08/22 00:46:09;;;;;;;;;;;;;;;24.06;67.96;97261.27;593297;239;64926;-68
2023/08/22 00:48:36;;;;;;;;;;;;;;;24.06;67.95;97258.58;591414;239;65115;-69
2023/08/22 00:51:04;;;;;;;;;;;;;;;24.07;67.95;97260.17;592142;239;65742;-69
2023/08/22 00:53:32;;;;;;;;;;;;;;;24.06;67.93;97258.58;593123;239;62461;-68
2023/08/22 00:56:01;;;;;;;;;;;;;;;24.06;67.92;97257.75;593189;239;67839;-69
2023/08/22 00:58:29;;;;;;;;;;;;;;;24.06;67.89;97260.44;593165;239;67062;-69
2023/08/22 01:00:56;;;;;;;;;;;;;;;24.06;67.88;97261.27;591956;239;64995;-68
2023/08/22 01:03:24;;;;;;;;;;;;;;;24.06;67.94;97257.75;591908;239;67379;-69
2023/08/22 01:05:53;;;;;;;;;;;;;;;24.06;68.00;97263.13;593138;239;67082;-70
2023/08/22 01:08:25;;;;;;;;;;;;;;;24.06;68.02;97257.75;593157;239;64635;-69
2023/08/22 01:10:54;;;;;;;;;;;;;;;24.05;67.94;97262.33;591708;239;64842;-68
2023/08/22 01:13:23;;;;;;;;;;;;;;;24.05;67.81;97265.02;591865;239;65043;-68
2023/08/22 01:15:51;;;;;;;;;;;;;;;24.05;67.77;97266.91;593147;239;64912;-68
2023/08/22 01:18:19;;;;;;;;;;;;;;;24.06;67.76;97269.31;592221;239;67062;-68
2023/08/22 01:20:47;;;;;;;;;;;;;;;24.05;67.72;97270.38;590580;239;64384;-68
2023/08/22 01:23:15;;;;;;;;;;;;;;;24.05;67.72;97273.06;592267;239;65116;-68
2023/08/22 01:25:42;;;;;;;;;;;;;;;24.05;67.71;97275.75;586224;240;67927;-68
2023/08/22 01:28:12;;;;;;;;;;;;;;;24.05;67.72;97269.59;581066;243;65919;-68
2023/08/22 01:30:45;;;;;;;;;;;;;;;24.04;67.86;97276.84;587146;239;64512;-68
2023/08/22 01:33:14;;;;;;;;;;;;;;;24.04;67.83;97279.53;586165;241;67322;-69
2023/08/22 01:35:43;;;;;;;;;;;;;;;24.05;67.66;97283.80;580889;244;65936;-68
2023/08/22 01:38:11;;;;;;;;;;;;;;;24.04;67.63;97279.53;589376;239;62650;-68
2023/08/22 01:40:39;;;;;;;;;;;;;;;24.04;67.73;97282.22;585029;242;67341;-69
2023/08/22 01:43:07;;;;;;;;;;;;;;;24.05;67.77;97283.80;588026;240;67153;-68
2023/08/22 01:45:34;;;;;;;;;;;;;;;24.04;67.69;97287.59;583056;242;62386;-68
2023/08/22 01:48:02;;;;;;;;;;;;;;;24.04;67.55;97295.64;585131;240;64866;-68
2023/08/22 01:50:29;;;;;;;;;;;;;;;24.04;67.53;97284.91;583019;243;67176;-68
2023/08/22 01:52:57;;;;;;;;;;;;;;;24.05;67.56;97288.37;590320;240;62378;-69
2023/08/22 01:55:25;;;;;;;;;;;;;;;24.04;67.56;97287.59;583897;241;67326;-69
2023/08/22 01:57:53;;;;;;;;;;;;;;;24.04;67.76;97292.16;591058;240;65193;-69
2023/08/22 02:00:20;;;;;;;;;;;;;;;24.04;67.76;97292.16;589055;240;64938;-68
2023/08/22 02:02:47;;;;;;;;;;;;;;;24.03;67.55;97288.65;580203;241;67603;-68
2023/08/22 02:05:15;;;;;;;;;;;;;;;24.03;67.43;97288.65;587016;240;67332;-69
2023/08/22 02:07:43;;;;;;;;;;;;;;;24.03;67.85;97279.80;583651;240;65200;-68
2023/08/22 02:10:11;;;;;;;;;;;;;;;24.04;68.13;97292.95;590571;240;64620;-68
2023/08/22 02:12:39;;;;;;;;;;;;;;;24.03;67.66;97290.54;580924;243;67237;-68
2023/08/22 02:15:07;;;;;;;;;;;;;;;24.02;67.42;97281.69;584972;240;64777;-68
2023/08/22 02:17:35;;;;;;;;;;;;;;;24.02;67.41;97281.69;582567;243;65173;-68
2023/08/22 02:20:04;;;;;;;;;;;;;;;24.03;67.96;97285.17;585663;240;67321;-68
2023/08/22 02:22:31;;;;;;;;;;;;;;;24.02;67.83;97292.43;580712;243;64616;-68
2023/08/22 02:24:59;;;;;;;;;;;;;;;24.02;67.76;97281.69;584836;240;64577;-69
2023/08/22 02:27:27;;;;;;;;;;;;;;;24.03;68.13;97290.54;582380;243;67075;-69
2023/08/22 02:29:54;;;;;;;;;;;;;;;24.02;67.42;97284.38;585558;238;62476;-68
2023/08/22 02:32:22;;;;;;;;;;;;;;;24.03;68.37;97285.17;580427;243;64638;-68
2023/08/22 02:34:50;;;;;;;;;;;;;;;24.02;67.78;97294.32;584790;240;66876;-69
2023/08/22 02:37:17;;;;;;;;;;;;;;;24.01;67.28;97293.52;582693;242;64835;-68
2023/08/22 02:39:45;;;;;;;;;;;;;;;24.02;67.54;97300.48;590854;240;67293;-69
2023/08/22 02:42:12;;;;;;;;;;;;;;;24.02;68.15;97303.17;585999;240;67368;-69
2023/08/22 02:44:40;;;;;;;;;;;;;;;24.02;67.49;97305.85;580505;242;64906;-69
2023/08/22 02:47:09;;;;;;;;;;;;;;;24.02;67.61;97305.06;584836;240;65790;-69
2023/08/22 02:49:36;;;;;;;;;;;;;;;24.01;67.39;97304.27;582184;242;67554;-69
2023/08/22 02:52:04;;;;;;;;;;;;;;;24.01;67.20;97298.89;585646;240;64778;-68
2023/08/22 02:54:31;;;;;;;;;;;;;;;24.01;67.11;97301.58;584493;240;64883;-69
2023/08/22 02:56:59;;;;;;;;;;;;;;;24.01;67.20;97304.27;586001;240;64548;-69
2023/08/22 02:59:27;;;;;;;;;;;;;;;24.01;67.79;97300.75;583502;243;63465;-69
2023/08/22 03:01:54;;;;;;;;;;;;;;;24.01;67.54;97304.27;588719;240;66881;-69
2023/08/22 03:04:22;;;;;;;;;;;;;;;24.01;67.77;97298.89;583088;243;67251;-68
2023/08/22 03:06:50;;;;;;;;;;;;;;;24.01;67.61;97312.31;584662;240;62188;-68
2023/08/22 03:09:18;;;;;;;;;;;;;;;24.00;67.35;97310.70;581176;243;67582;-69
2023/08/22 03:11:45;;;;;;;;;;;;;;;24.01;67.17;97309.63;585486;240;64966;-68
2023/08/22 03:14:13;;;;;;;;;;;;;;;24.00;67.01;97308.02;582664;243;65595;-69
2023/08/22 03:16:40;;;;;;;;;;;;;;;24.01;67.96;97319.55;588596;238;68069;-68
2023/08/22 03:19:08;;;;;;;;;;;;;;;24.00;67.21;97318.75;581229;242;67002;-68
2023/08/22 03:21:35;;;;;;;;;;;;;;;24.00;67.02;97317.95;587362;240;62434;-69
2023/08/22 03:24:03;;;;;;;;;;;;;;;24.01;67.52;97322.23;587399;241;64637;-68
2023/08/22 03:26:31;;;;;;;;;;;;;;;24.00;67.92;97321.44;583663;242;66778;-68
2023/08/22 03:28:58;;;;;;;;;;;;;;;24.00;67.68;97321.44;585599;240;62477;-68
2023/08/22 03:31:28;;;;;;;;;;;;;;;24.00;67.24;97323.33;583358;243;66875;-68
2023/08/22 03:33:56;;;;;;;;;;;;;;;24.00;70.10;97318.75;586773;240;66989;-68
2023/08/22 03:36:23;;;;;;;;;;;;;;;23.99;68.32;97322.53;583070;241;62419;-68
2023/08/22 03:38:51;;;;;;;;;;;;;;;23.98;67.70;97326.31;584411;240;64613;-68
2023/08/22 03:41:19;;;;;;;;;;;;;;;23.98;67.20;97326.31;581641;242;66654;-68
2023/08/22 03:43:47;;;;;;;;;;;;;;;23.99;66.92;97327.90;590573;240;65220;-68
2023/08/22 03:46:15;;;;;;;;;;;;;;;23.99;67.95;97327.11;587103;240;66946;-68
2023/08/22 03:48:42;;;;;;;;;;;;;;;23.98;67.72;97325.48;583298;242;66796;-68
2023/08/22 03:51:10;;;;;;;;;;;;;;;23.99;67.20;97321.73;588421;238;64797;-68
2023/08/22 03:53:39;;;;;;;;;;;;;;;23.99;67.81;97330.58;585629;241;65004;-69
2023/08/22 03:56:06;;;;;;;;;;;;;;;23.99;68.94;97327.90;582161;243;67343;-68
2023/08/22 03:58:34;;;;;;;;;;;;;;;23.98;68.64;97326.31;585445;240;63453;-68
2023/08/22 04:01:05;;;;;;;;;;;;;;;23.98;68.64;97325.48;580431;242;65672;-68
2023/08/22 04:03:33;;;;;;;;;;;;;;;23.96;68.64;97333.84;588659;238;64741;-68
2023/08/22 04:06:03;;;;;;;;;;;;;;;23.97;67.50;97338.11;589662;239;64770;-68
2023/08/22 04:08:30;;;;;;;;;;;;;;;23.98;69.15;97331.68;583909;242;67155;-69
2023/08/22 04:10:58;;;;;;;;;;;;;;;23.96;67.67;97328.47;580370;241;64641;-69
2023/08/22 04:13:26;;;;;;;;;;;;;;;23.97;69.12;97340.80;580759;242;62411;-69
2023/08/22 04:15:54;;;;;;;;;;;;;;;23.96;68.63;97333.84;591412;239;67474;-69
2023/08/22 04:18:22;;;;;;;;;;;;;;;23.97;68.97;97331.95;588258;239;67057;-69
2023/08/22 04:20:49;;;;;;;;;;;;;;;23.96;67.45;97333.84;582152;243;62343;-69
2023/08/22 04:23:18;;;;;;;;;;;;;;;23.97;68.66;97345.38;585074;240;67897;-69
2023/08/22 04:25:46;;;;;;;;;;;;;;;23.97;70.21;97340.80;581747;242;67691;-69
2023/08/22 04:28:13;;;;;;;;;;;;;;;23.96;68.76;97339.20;588178;240;62710;-69
2023/08/22 04:30:43;;;;;;;;;;;;;;;23.96;68.74;97344.58;581976;243;67297;-69
2023/08/22 04:33:10;;;;;;;;;;;;;;;23.95;67.84;97344.84;584977;240;65762;-69
2023/08/22 04:35:38;;;;;;;;;;;;;;;23.96;67.43;97351.83;581491;242;65345;-69
2023/08/22 04:38:06;;;;;;;;;;;;;;;23.96;69.57;97355.31;588515;238;68077;-69
2023/08/22 04:40:34;;;;;;;;;;;;;;;23.96;70.57;97352.62;581628;240;64434;-69
2023/08/22 04:43:03;;;;;;;;;;;;;;;23.95;68.35;97340.27;591133;239;43635;-69
2023/08/22 04:45:30;;;;;;;;;;;;;;;23.96;69.82;97349.15;584288;241;67290;-69
2023/08/22 04:47:58;;;;;;;;;;;;;;;23.95;67.77;97352.89;584898;240;68164;-69
2023/08/22 04:50:25;;;;;;;;;;;;;;;23.95;67.71;97348.32;594378;238;64883;-69
2023/08/22 04:52:53;;;;;;;;;;;;;;;23.95;67.24;97348.32;595575;237;67358;-69
2023/08/22 04:55:23;;;;;;;;;;;;;;;23.96;68.00;97344.58;595053;237;67338;-69
2023/08/22 04:57:51;;;;;;;;;;;;;;;23.96;66.70;97343.78;592980;238;64698;-68
2023/08/22 05:00:18;;;;;;;;;;;;;;;23.96;67.07;97344.58;594071;238;65041;-68
2023/08/22 05:02:46;;;;;;;;;;;;;;;23.95;66.92;97348.32;596633;237;66945;-68
2023/08/22 05:05:14;;;;;;;;;;;;;;;23.97;68.28;97340.00;595841;237;62926;-68
2023/08/22 05:07:41;;;;;;;;;;;;;;;23.95;68.67;97345.64;595289;238;66885;-68
2023/08/22 05:10:09;;;;;;;;;;;;;;;23.95;68.22;97345.64;594638;238;67180;-70
2023/08/22 05:12:37;;;;;;;;;;;;;;;23.96;68.78;97339.20;593025;238;64779;-68
2023/08/22 05:15:04;;;;;;;;;;;;;;;23.96;68.10;97338.41;593034;239;67385;-70
2023/08/22 05:17:32;;;;;;;;;;;;;;;23.95;67.94;97332.22;594659;238;67024;-68
2023/08/22 05:19:59;;;;;;;;;;;;;;;23.95;67.14;97340.27;594811;238;63434;-68
2023/08/22 05:22:27;;;;;;;;;;;;;;;23.95;67.05;97340.27;593562;238;66869;-68
2023/08/22 05:24:55;;;;;;;;;;;;;;;23.96;68.21;97339.20;594037;238;67455;-68
2023/08/22 05:27:22;;;;;;;;;;;;;;;23.95;67.44;97337.59;592575;238;65811;-68
2023/08/22 05:29:50;;;;;;;;;;;;;;;23.97;67.97;97343.48;592383;239;64682;-68
2023/08/22 05:32:17;;;;;;;;;;;;;;;23.95;66.85;97337.59;594123;238;67045;-68
2023/08/22 05:34:45;;;;;;;;;;;;;;;23.95;67.56;97340.27;592466;238;64688;-68
2023/08/22 05:37:13;;;;;;;;;;;;;;;23.95;66.92;97348.32;591386;238;65030;-68
2023/08/22 05:39:41;;;;;;;;;;;;;;;23.97;67.62;97353.42;594398;238;66979;-68
2023/08/22 05:42:08;;;;;;;;;;;;;;;23.96;67.96;97349.15;593738;238;64757;-70
2023/08/22 05:44:36;;;;;;;;;;;;;;;23.95;68.23;97342.95;594798;238;67201;-68
2023/08/22 05:47:04;;;;;;;;;;;;;;;23.96;67.21;97343.78;594812;237;67339;-70
2023/08/22 05:49:33;;;;;;;;;;;;;;;23.96;67.55;97336.52;593542;237;63519;-68
2023/08/22 05:52:02;;;;;;;;;;;;;;;23.95;66.83;97337.59;589370;240;68312;-68
2023/08/22 05:54:34;;;;;;;;;;;;;;;23.96;66.84;97339.20;590593;240;64543;-70
2023/08/22 05:57:03;;;;;;;;;;;;;;;23.96;66.63;97325.78;585223;240;65082;-70
2023/08/22 05:59:30;;;;;;;;;;;;;;;23.96;67.49;97323.10;586336;240;67963;-70
2023/08/22 06:01:59;;;;;;;;;;;;;;;23.96;67.63;97325.78;580208;242;44163;-70
2023/08/22 06:04:28;;;;;;;;;;;;;;;23.96;66.94;97325.78;590224;240;65438;-70
2023/08/22 06:06:56;;;;;;;;;;;;;;;23.96;66.70;97322.30;591672;239;67146;-68
2023/08/22 06:09:23;;;;;;;;;;;;;;;23.96;66.75;97323.10;585096;241;64504;-68
2023/08/22 06:11:51;;;;;;;;;;;;;;;23.96;66.67;97328.47;584684;240;64848;-69
2023/08/22 06:14:19;;;;;;;;;;;;;;;23.96;66.70;97331.16;579823;242;68046;-69
2023/08/22 06:16:46;;;;;;;;;;;;;;;23.96;66.87;97325.78;588049;238;66813;-69
2023/08/22 06:19:15;;;;;;;;;;;;;;;23.96;66.86;97328.47;590159;239;62204;-69
2023/08/22 06:21:43;;;;;;;;;;;;;;;23.97;66.78;97323.89;583480;240;65110;-65
2023/08/22 06:24:10;;;;;;;;;;;;;;;23.98;66.81;97325.48;583349;242;67581;-67
2023/08/22 06:26:38;;;;;;;;;;;;;;;23.97;66.99;97324.69;580878;243;62704;-70
2023/08/22 06:29:06;;;;;;;;;;;;;;;23.98;67.00;97329.00;590901;240;68218;-69
2023/08/22 06:31:34;;;;;;;;;;;;;;;23.98;66.87;97331.68;581217;242;67770;-68
2023/08/22 06:34:02;;;;;;;;;;;;;;;24.00;67.26;97328.70;582252;243;62372;-66
2023/08/22 06:36:30;;;;;;;;;;;;;;;24.00;66.87;97329.49;582968;241;67163;-69
2023/08/22 06:38:57;;;;;;;;;;;;;;;24.02;66.86;97332.70;588241;240;67059;-68
2023/08/22 06:41:25;;;;;;;;;;;;;;;24.03;66.70;97330.81;588125;240;62429;-67
2023/08/22 06:43:53;;;;;;;;;;;;;;;24.04;66.65;97330.54;588425;240;66999;-68
2023/08/22 06:46:21;;;;;;;;;;;;;;;24.05;66.69;97337.50;586577;240;66971;-69
2023/08/22 06:48:52;;;;;;;;;;;;;;;24.06;66.65;97333.75;588833;240;64960;-67
2023/08/22 06:51:21;;;;;;;;;;;;;;;24.07;66.60;97334.55;589569;240;67835;-69
2023/08/22 06:53:49;;;;;;;;;;;;;;;24.08;66.61;97328.88;588917;240;67070;-70
2023/08/22 06:56:16;;;;;;;;;;;;;;;24.09;66.61;97332.36;587808;241;64811;-69
2023/08/22 06:58:44;;;;;;;;;;;;;;;24.09;66.65;97327.81;585968;241;64914;-69
2023/08/22 07:01:11;;;;;;;;;;;;;;;24.09;66.65;97327.81;588250;240;64843;-70
2023/08/22 07:03:39;;;;;;;;;;;;;;;24.10;66.69;97323.23;588518;239;62466;-70
2023/08/22 07:06:06;;;;;;;;;;;;;;;24.12;66.70;97321.88;588933;240;67079;-70
2023/08/22 07:08:34;;;;;;;;;;;;;;;24.11;66.73;97322.14;587376;240;67540;-70
2023/08/22 07:11:05;;;;;;;;;;;;;;;24.12;66.73;97316.50;588560;240;63433;-67
2023/08/22 07:13:36;;;;;;;;;;;;;;;24.13;66.77;97317.30;586274;241;64923;-67
2023/08/22 07:16:04;;;;;;;;;;;;;;;24.13;66.79;97320.77;585807;242;64967;-66
2023/08/22 07:18:32;;;;;;;;;;;;;;;24.13;66.81;97318.09;589271;240;64614;-67
2023/08/22 07:21:03;;;;;;;;;;;;;;;24.14;67.02;97318.88;589591;240;67237;-68
2023/08/22 07:23:30;;;;;;;;;;;;;;;24.13;66.97;97314.61;587426;240;67012;-65
2023/08/22 07:25:58;;;;;;;;;;;;;;;24.13;67.03;97318.09;586540;240;64691;-67
2023/08/22 07:28:26;;;;;;;;;;;;;;;24.15;66.93;97315.13;588512;240;64547;-67
2023/08/22 07:30:53;;;;;;;;;;;;;;;24.15;66.87;97315.93;586372;241;64129;-67
2023/08/22 07:33:21;;;;;;;;;;;;;;;24.17;66.87;97318.31;589082;240;64628;-68
2023/08/22 07:35:48;;;;;;;;;;;;;;;24.17;66.94;97317.52;589439;239;67020;-66
2023/08/22 07:38:16;;;;;;;;;;;;;;;24.18;66.98;97317.25;588602;240;67068;-68
2023/08/22 07:40:44;;;;;;;;;;;;;;;24.18;66.97;97317.25;587086;241;62325;-67
2023/08/22 07:43:12;;;;;;;;;;;;;;;24.18;66.99;97311.08;597883;237;64618;-68
2023/08/22 07:45:39;;;;;;;;;;;;;;;24.19;67.04;97310.78;595992;237;66544;-65
2023/08/22 07:48:07;;;;;;;;;;;;;;;24.21;67.08;97311.30;596990;237;64544;-67
2023/08/22 07:50:35;;;;;;;;;;;;;;;24.19;66.87;97309.98;594788;238;65319;-68
2023/08/22 07:53:04;;;;;;;;;;;;;;;24.19;66.69;97304.61;595984;237;65075;-68
2023/08/22 07:55:31;;;;;;;;;;;;;;;24.19;66.74;97312.67;598014;237;62724;-68
2023/08/22 07:57:59;;;;;;;;;;;;;;;24.18;66.71;97311.88;597967;237;64344;-67
2023/08/22 08:00:26;;;;;;;;;;;;;;;24.18;66.72;97308.40;597859;237;67258;-68
2023/08/22 08:02:54;;;;;;;;;;;;;;;24.19;66.76;97307.30;597952;237;64839;-68
2023/08/22 08:05:28;;;;;;;;;;;;;;;24.18;66.82;97306.51;595042;237;67296;-69
2023/08/22 08:07:53;;;;;;;;;;;;;;;24.18;66.77;97306.51;595582;237;67134;-69
2023/08/22 08:10:22;;;;;;;;;;;;;;;24.18;66.80;97303.03;592743;238;65669;-68
2023/08/22 08:12:52;;;;;;;;;;;;;;;24.18;66.83;97308.40;594261;237;67108;-68
2023/08/22 08:15:20;;;;;;;;;;;;;;;24.17;66.75;97304.09;595674;237;64832;-68
2023/08/22 08:17:47;;;;;;;;;;;;;;;24.17;66.77;97307.57;595877;237;62367;-68
2023/08/22 08:20:15;;;;;;;;;;;;;;;24.17;66.73;97309.46;595878;237;67396;-69
2023/08/22 08:22:44;;;;;;;;;;;;;;;24.18;66.71;97305.71;594733;237;52696;-69
2023/08/22 08:25:12;;;;;;;;;;;;;;;24.18;66.73;97311.08;594718;237;62461;-69
2023/08/22 08:27:39;;;;;;;;;;;;;;;24.19;66.71;97301.93;594572;238;67168;-69
2023/08/22 08:30:10;;;;;;;;;;;;;;;24.18;66.67;97303.03;596873;237;67053;-69
2023/08/22 08:32:37;;;;;;;;;;;;;;;24.19;66.65;97304.61;593746;237;62738;-68
2023/08/22 13:46:30;;;;;;;;;;;;;;;24.70;64.65;97132.08;540429;231;43437;-67
2023/08/22 13:48:57;;;;;;;;;;;;;;;24.69;64.64;97125.09;616891;229;65446;-67
2023/08/22 13:51:25;;;;;;;;;;;;;;;24.68;64.77;97118.92;616102;229;67185;-66
2023/08/22 13:53:53;;;;;;;;;;;;;;;24.67;64.82;97116.54;613111;230;64697;-66
2023/08/22 13:56:22;;;;;;;;;;;;;;;24.66;64.98;97114.92;611922;230;63403;-67
2023/08/22 13:58:49;;;;;;;;;;;;;;;24.63;65.14;97120.89;611894;230;66771;-68
2023/08/22 14:01:17;;;;;;;;;;;;;;;24.61;65.28;97113.14;614337;229;67007;-68
2023/08/22 14:03:44;;;;;;;;;;;;;;;24.59;65.48;97116.09;610954;230;63366;-70
2023/08/22 14:06:12;;;;;;;;;;;;;;;24.56;65.58;97111.31;610146;231;65148;-68
2023/08/22 14:08:39;;;;;;;;;;;;;;;24.53;65.68;97106.53;611492;229;64787;-68
2023/08/22 14:11:07;;;;;;;;;;;;;;;24.52;65.82;97110.28;612325;229;64951;-68
2023/08/22 14:13:41;;;;;;;;;;;;;;;24.51;65.96;97110.59;611400;230;67183;-69
2023/08/22 14:16:04;;;;;;;;;;;;;;;24.50;66.08;97111.66;611371;230;66798;-67
2023/08/22 14:18:32;;;;;;;;;;;;;;;24.48;66.15;97111.97;611896;230;64785;-67
2023/08/22 14:21:00;;;;;;;;;;;;;;;24.48;66.25;97103.91;614724;229;67051;-68
2023/08/22 14:23:27;;;;;;;;;;;;;;;24.48;66.34;97111.97;611711;230;66960;-69
2023/08/22 14:25:55;;;;;;;;;;;;;;;24.46;66.41;97106.09;611858;230;65512;-67
2023/08/22 14:28:23;;;;;;;;;;;;;;;24.46;66.52;97105.29;611939;230;64846;-67
2023/08/22 14:30:52;;;;;;;;;;;;;;;24.45;66.70;97099.13;611270;231;64481;-68
2023/08/22 14:33:19;;;;;;;;;;;;;;;24.45;66.77;97101.81;611855;230;62556;-67
2023/08/22 14:35:47;;;;;;;;;;;;;;;24.44;66.85;97100.20;611967;230;64916;-68
2023/08/22 14:38:14;;;;;;;;;;;;;;;24.45;66.93;97103.70;611907;230;64785;-68
2023/08/22 14:40:43;;;;;;;;;;;;;;;24.43;66.95;97106.64;611883;230;62704;-68
2023/08/22 14:43:11;;;;;;;;;;;;;;;24.45;66.92;97101.02;614354;229;64957;-68
2023/08/22 14:45:38;;;;;;;;;;;;;;;24.44;66.97;97102.09;610176;231;67054;-68
2023/08/22 14:48:06;;;;;;;;;;;;;;;24.44;66.96;97096.72;611896;230;65518;-68
2023/08/22 14:50:35;;;;;;;;;;;;;;;24.44;67.06;97102.09;613380;229;67440;-67
2023/08/22 14:53:02;;;;;;;;;;;;;;;24.45;67.14;97103.70;611330;230;67151;-67
2023/08/22 14:55:30;;;;;;;;;;;;;;;24.43;67.17;97095.89;612110;230;64772;-64
2023/08/22 14:57:57;;;;;;;;;;;;;;;24.43;67.14;97098.58;611917;230;64850;-67
2023/08/22 15:00:27;;;;;;;;;;;;;;;24.46;64.60;97089.97;611975;230;64328;-63
2023/08/22 15:02:54;;;;;;;;;;;;;;;24.48;63.07;97092.38;612035;230;62440;-62
2023/08/22 15:05:21;;;;;;;;;;;;;;;24.50;62.62;97087.48;611999;230;67026;-58
2023/08/22 15:07:49;;;;;;;;;;;;;;;24.51;62.71;97089.10;613949;229;64678;-58
2023/08/22 15:10:17;;;;;;;;;;;;;;;24.51;61.19;97081.04;610680;231;64893;-58
2023/08/22 15:12:44;;;;;;;;;;;;;;;24.52;60.96;97083.42;615407;230;66731;-57
2023/08/22 15:15:12;;;;;;;;;;;;;;;24.53;62.24;97073.49;615819;230;67261;-58
2023/08/22 15:17:39;;;;;;;;;;;;;;;24.53;65.48;97073.49;615806;230;64691;-59
2023/08/22 15:20:07;;;;;;;;;;;;;;;24.51;65.40;97073.77;613423;230;67391;-58
2023/08/22 15:22:34;;;;;;;;;;;;;;;24.51;64.44;97075.67;612311;231;67014;-58
2023/08/22 15:25:02;;;;;;;;;;;;;;;24.51;62.66;97076.46;612374;231;64829;-58
2023/08/22 15:27:29;;;;;;;;;;;;;;;24.52;64.69;97075.36;612375;231;67064;-58
2023/08/22 15:29:57;;;;;;;;;;;;;;;24.52;64.53;97069.19;612381;231;67859;-58
2023/08/22 15:32:24;;;;;;;;;;;;;;;24.51;63.18;97070.30;612361;231;62343;-58
2023/08/22 15:34:53;;;;;;;;;;;;;;;24.51;63.01;97071.09;612389;231;64496;-58
2023/08/22 15:37:20;;;;;;;;;;;;;;;24.52;63.11;97066.51;612385;231;66937;-58
2023/08/22 15:39:48;;;;;;;;;;;;;;;24.52;64.72;97077.25;612405;231;64595;-58
2023/08/22 15:42:15;;;;;;;;;;;;;;;24.52;64.72;97071.88;612397;231;64943;-58
2023/08/22 15:44:43;;;;;;;;;;;;;;;24.50;64.58;97072.19;612434;231;64868;-58
2023/08/22 15:47:10;;;;;;;;;;;;;;;24.50;64.53;97080.25;612432;231;62400;-58
2023/08/22 15:49:38;;;;;;;;;;;;;;;24.51;64.43;97081.04;612406;231;67219;-58
2023/08/22 15:52:05;;;;;;;;;;;;;;;24.51;64.57;97076.46;612274;231;67902;-59
2023/08/22 15:54:33;;;;;;;;;;;;;;;24.51;64.50;97078.36;612398;231;64738;-59
2023/08/22 15:57:00;;;;;;;;;;;;;;;24.51;64.39;97076.46;612431;231;66781;-59
2023/08/22 15:59:28;;;;;;;;;;;;;;;24.52;64.38;97088.00;612441;231;64362;-59
2023/08/22 16:01:55;;;;;;;;;;;;;;;24.51;63.68;97095.27;612392;231;62445;-58
2023/08/22 16:04:23;;;;;;;;;;;;;;;24.52;64.09;97091.48;612409;231;67356;-58
2023/08/22 16:06:50;;;;;;;;;;;;;;;24.52;64.05;97096.06;612414;231;65106;-58
2023/08/22 16:09:18;;;;;;;;;;;;;;;24.52;64.09;97094.16;612429;231;64760;-58
2023/08/22 16:11:46;;;;;;;;;;;;;;;24.53;64.08;97097.67;612385;231;67026;-58
2023/08/22 16:14:14;;;;;;;;;;;;;;;24.53;64.04;97100.36;612398;231;64831;-59
2023/08/22 16:16:41;;;;;;;;;;;;;;;24.51;63.97;97097.95;612403;231;64773;-58
2023/08/22 16:19:09;;;;;;;;;;;;;;;24.53;63.93;97100.36;612364;231;67039;-58
2023/08/22 16:21:36;;;;;;;;;;;;;;;24.52;63.81;97104.91;612417;231;65796;-58
2023/08/22 16:24:04;;;;;;;;;;;;;;;24.53;63.81;97109.22;612414;231;64933;-58
2023/08/22 16:26:33;;;;;;;;;;;;;;;24.53;63.80;97103.05;612421;231;66928;-58
2023/08/22 16:29:01;;;;;;;;;;;;;;;24.53;63.78;97116.48;612378;231;64885;-58
2023/08/22 16:31:30;;;;;;;;;;;;;;;24.53;63.74;97117.27;612365;231;62516;-58
2023/08/22 16:33:57;;;;;;;;;;;;;;;24.53;63.51;97119.96;612412;231;67473;-58
2023/08/22 16:36:25;;;;;;;;;;;;;;;24.54;62.72;97112.69;612428;231;67034;-60
2023/08/22 16:38:52;;;;;;;;;;;;;;;24.55;62.15;97120.47;612428;231;64536;-60
2023/08/22 16:41:20;;;;;;;;;;;;;;;24.56;61.76;97122.06;612373;231;67163;-60
2023/08/22 16:43:47;;;;;;;;;;;;;;;24.56;62.97;97121.27;612404;231;66846;-60
2023/08/22 16:46:15;;;;;;;;;;;;;;;24.58;62.23;97121.75;612434;231;64644;-60
2023/08/22 16:48:42;;;;;;;;;;;;;;;24.58;61.30;97125.27;612440;231;66915;-60
2023/08/22 16:51:12;;;;;;;;;;;;;;;24.59;61.20;97124.16;612452;231;64486;-60
2023/08/22 16:53:39;;;;;;;;;;;;;;;24.59;61.78;97128.74;612446;231;64588;-60
2023/08/22 16:56:07;;;;;;;;;;;;;;;24.58;62.07;97122.58;610020;231;64508;-60
2023/08/22 16:58:38;;;;;;;;;;;;;;;24.58;62.05;97121.75;613362;230;66993;-60
2023/08/22 17:01:04;;;;;;;;;;;;;;;24.57;62.37;97120.17;616425;230;64840;-60
2023/08/22 17:03:32;;;;;;;;;;;;;;;24.57;62.23;97123.65;616476;230;66931;-60
2023/08/22 17:05:59;;;;;;;;;;;;;;;24.57;62.40;97117.48;616478;230;66649;-60
2023/08/22 17:08:27;;;;;;;;;;;;;;;24.56;62.36;97121.27;616452;230;62608;-60
2023/08/22 17:11:07;;;;;;;;;;;;;;;24.56;62.55;97130.13;614515;230;66981;-60
2023/08/22 17:13:42;;;;;;;;;;;;;;;24.56;62.53;97126.64;612422;231;66794;-59
2023/08/22 17:16:11;;;;;;;;;;;;;;;24.56;62.53;97130.13;612186;231;62460;-59
2023/08/22 17:18:38;;;;;;;;;;;;;;;24.56;62.50;97135.50;612412;231;67170;-59
2023/08/22 17:21:14;;;;;;;;;;;;;;;24.56;62.59;97137.39;612360;231;67446;-59
2023/08/22 17:23:42;;;;;;;;;;;;;;;24.56;62.61;97142.77;612402;231;64771;-59
2023/08/22 17:26:11;;;;;;;;;;;;;;;24.56;62.69;97145.45;612399;231;65110;-59
2023/08/22 17:28:44;;;;;;;;;;;;;;;24.54;62.75;97145.72;612398;231;66966;-59
2023/08/22 17:31:09;;;;;;;;;;;;;;;24.55;62.82;97147.34;612276;231;64626;-59
2023/08/22 17:33:42;;;;;;;;;;;;;;;24.55;62.86;97155.41;612390;231;67217;-59
2023/08/22 17:36:08;;;;;;;;;;;;;;;24.55;62.88;97155.41;613209;230;67052;-59
2023/08/22 17:38:36;;;;;;;;;;;;;;;24.55;62.86;97158.09;613568;230;64566;-59
2023/08/22 17:41:05;;;;;;;;;;;;;;;24.54;62.92;97156.47;612363;231;64531;-59
2023/08/22 17:43:33;;;;;;;;;;;;;;;24.54;63.03;97161.84;612157;231;66698;-59
2023/08/22 17:46:01;;;;;;;;;;;;;;;24.55;62.97;97163.47;612317;231;64759;-58
2023/08/22 17:48:29;;;;;;;;;;;;;;;24.55;62.95;97171.52;612392;231;67304;-59
2023/08/22 17:51:00;;;;;;;;;;;;;;;24.55;63.00;97174.21;612400;231;64765;-59
2023/08/22 17:53:28;;;;;;;;;;;;;;;24.54;63.08;97175.28;612397;231;64647;-59
2023/08/22 17:55:56;;;;;;;;;;;;;;;24.54;63.12;97172.59;612399;231;67291;-59
2023/08/22 17:58:23;;;;;;;;;;;;;;;24.55;63.19;97178.76;612376;231;67297;-59
2023/08/22 18:00:51;;;;;;;;;;;;;;;24.54;63.25;97179.86;612401;231;64556;-59
2023/08/22 18:03:19;;;;;;;;;;;;;;;24.55;63.16;97179.58;613945;230;67158;-58